Strona główna
METAR-TAF:

METAR-TAF

Lotnisko :

Baza lotnicza Volkel

Uden, Holandia

Szerokość geograficzna: 51-39N, Długość geograficzna: 005-42E, wysokość: 22 m

Aktualna obserwacja pogody

Raport powstał 23 minut temu, godzina 12:25 UTC
Wiatr 11 kt od północno-północny wschód, zmienny między północ i wschodnio-północny wschód
Temperatura 13°C
Wilgotność 47%
Ciśnienie 1023 hPa
Widzialność 10 km lub więcej

METAR: EHVK 281225Z AUTO 03011KT 350V060 9999 NCD 13/02 Q1023 BLU

czas: 13:48 (12:48 UTC)

Prognoza

Raport powstał 3 godziny i 35 minut temu, godzina 09:13 UTC
Prognoza ważna od 28 godzina 10 UTC do 28 godzina 22 UTC
Wiatr 13 kt od północno-północny wschód w porywach dochodzący do 26 kt
Widzialność 10 km lub więcej
Brak chmur poniżej 1500 m i brak chmur cumulonimbus
Stopniowe zmiany
od 28 godzina 19 UTC do 28 godzina 21 UTC
Wiatr 10 kt od północ
Rozproszone chmury na wysokości 2500 ft

TAF: EHVK 280913Z 2810/2822 03013G26KT CAVOK BECMG 2819/2821 36010KT SCT025

Obserwacja i prognoza pogody dla ponad 4000 lotnisk (raport METAR i TAF).

Dostępne stacje oznaczono żółtymi i czerwonymi punktami na mapie.

Najedź kursorem aby zobaczyć nazwę stacji.

Kliknij aby zobaczyć obserwacje i prognozy pogody.

Aby zmienić mapę: kliknij na zielony przycisk z czarnym krzyżykiem, aby powiększyć; na zielony przycisk z myślnikiem, aby pomniejszyć; na zielone strzałki, aby przejść do map sąsiednich.


METAR-TAF: